sensor_id;sensor_type;location;lat;lon;timestamp;P1;durP1;ratioP1;P2;durP2;ratioP2
23171;SDS011;11754;42.664;23.594;2023-04-03T00:00:44;13.18;;;6.47;;
23171;SDS011;11754;42.664;23.594;2023-04-03T00:03:10;10.57;;;6.45;;
23171;SDS011;11754;42.664;23.594;2023-04-03T00:05:35;11.82;;;6.72;;
23171;SDS011;11754;42.664;23.594;2023-04-03T00:08:01;10.80;;;6.35;;
23171;SDS011;11754;42.664;23.594;2023-04-03T00:10:32;15.52;;;7.00;;
23171;SDS011;11754;42.664;23.594;2023-04-03T00:13:01;13.30;;;8.13;;
23171;SDS011;11754;42.664;23.594;2023-04-03T00:15:27;19.88;;;9.05;;
23171;SDS011;11754;42.664;23.594;2023-04-03T00:17:53;19.20;;;9.65;;
23171;SDS011;11754;42.664;23.594;2023-04-03T00:20:18;16.40;;;8.98;;
23171;SDS011;11754;42.664;23.594;2023-04-03T00:22:44;18.13;;;8.32;;
23171;SDS011;11754;42.664;23.594;2023-04-03T00:25:09;13.95;;;7.63;;
23171;SDS011;11754;42.664;23.594;2023-04-03T00:27:36;12.55;;;7.38;;
23171;SDS011;11754;42.664;23.594;2023-04-03T00:30:03;14.52;;;7.30;;
23171;SDS011;11754;42.664;23.594;2023-04-03T00:32:28;14.38;;;6.97;;
23171;SDS011;11754;42.664;23.594;2023-04-03T00:34:54;12.95;;;6.70;;
23171;SDS011;11754;42.664;23.594;2023-04-03T00:37:19;16.02;;;7.97;;
23171;SDS011;11754;42.664;23.594;2023-04-03T00:39:45;31.27;;;14.88;;
23171;SDS011;11754;42.664;23.594;2023-04-03T00:42:11;16.60;;;7.03;;
23171;SDS011;11754;42.664;23.594;2023-04-03T00:47:02;12.93;;;5.78;;
23171;SDS011;11754;42.664;23.594;2023-04-03T00:49:30;15.35;;;7.00;;
23171;SDS011;11754;42.664;23.594;2023-04-03T00:51:56;10.65;;;5.85;;
23171;SDS011;11754;42.664;23.594;2023-04-03T00:54:23;11.73;;;5.32;;
23171;SDS011;11754;42.664;23.594;2023-04-03T00:56:50;12.02;;;5.43;;
23171;SDS011;11754;42.664;23.594;2023-04-03T00:59:18;9.52;;;5.47;;
23171;SDS011;11754;42.664;23.594;2023-04-03T01:01:50;26.67;;;12.05;;
23171;SDS011;11754;42.664;23.594;2023-04-03T01:04:32;14.73;;;7.00;;
23171;SDS011;11754;42.664;23.594;2023-04-03T01:07:04;12.45;;;5.35;;
23171;SDS011;11754;42.664;23.594;2023-04-03T01:09:36;9.90;;;4.50;;
23171;SDS011;11754;42.664;23.594;2023-04-03T01:12:13;7.32;;;4.10;;
23171;SDS011;11754;42.664;23.594;2023-04-03T01:14:42;8.57;;;4.97;;
23171;SDS011;11754;42.664;23.594;2023-04-03T01:25:27;9.85;;;5.38;;
23171;SDS011;11754;42.664;23.594;2023-04-03T01:27:53;8.70;;;4.47;;
23171;SDS011;11754;42.664;23.594;2023-04-03T01:30:21;9.38;;;4.60;;
23171;SDS011;11754;42.664;23.594;2023-04-03T01:32:51;7.22;;;4.53;;
23171;SDS011;11754;42.664;23.594;2023-04-03T01:35:16;10.40;;;5.68;;
23171;SDS011;11754;42.664;23.594;2023-04-03T01:37:42;12.23;;;5.07;;
23171;SDS011;11754;42.664;23.594;2023-04-03T01:40:07;12.55;;;5.78;;
23171;SDS011;11754;42.664;23.594;2023-04-03T01:42:33;8.18;;;4.82;;
23171;SDS011;11754;42.664;23.594;2023-04-03T01:44:58;9.32;;;4.63;;
23171;SDS011;11754;42.664;23.594;2023-04-03T01:47:24;8.05;;;4.63;;
23171;SDS011;11754;42.664;23.594;2023-04-03T01:49:49;7.47;;;4.78;;
23171;SDS011;11754;42.664;23.594;2023-04-03T01:52:15;11.32;;;5.00;;
23171;SDS011;11754;42.664;23.594;2023-04-03T01:54:40;9.48;;;4.88;;
23171;SDS011;11754;42.664;23.594;2023-04-03T01:57:05;8.00;;;4.00;;
23171;SDS011;11754;42.664;23.594;2023-04-03T01:59:31;10.35;;;4.85;;
23171;SDS011;11754;42.664;23.594;2023-04-03T02:01:56;7.20;;;3.50;;
23171;SDS011;11754;42.664;23.594;2023-04-03T02:04:22;4.90;;;3.25;;
23171;SDS011;11754;42.664;23.594;2023-04-03T02:06:48;9.98;;;3.72;;
23171;SDS011;11754;42.664;23.594;2023-04-03T02:09:13;6.88;;;3.83;;
23171;SDS011;11754;42.664;23.594;2023-04-03T02:11:39;9.35;;;4.68;;
23171;SDS011;11754;42.664;23.594;2023-04-03T02:14:04;10.43;;;4.57;;
23171;SDS011;11754;42.664;23.594;2023-04-03T02:16:30;17.35;;;5.35;;
23171;SDS011;11754;42.664;23.594;2023-04-03T02:18:56;10.57;;;4.80;;
23171;SDS011;11754;42.664;23.594;2023-04-03T02:21:21;14.63;;;5.20;;
23171;SDS011;11754;42.664;23.594;2023-04-03T02:23:47;12.55;;;5.03;;
23171;SDS011;11754;42.664;23.594;2023-04-03T02:26:13;10.98;;;4.20;;
23171;SDS011;11754;42.664;23.594;2023-04-03T02:28:40;10.77;;;4.20;;
23171;SDS011;11754;42.664;23.594;2023-04-03T02:31:06;6.68;;;3.60;;
23171;SDS011;11754;42.664;23.594;2023-04-03T02:33:33;11.40;;;4.28;;
23171;SDS011;11754;42.664;23.594;2023-04-03T02:35:59;10.10;;;4.55;;
23171;SDS011;11754;42.664;23.594;2023-04-03T02:38:24;8.90;;;4.05;;
23171;SDS011;11754;42.664;23.594;2023-04-03T02:40:50;9.10;;;4.47;;
23171;SDS011;11754;42.664;23.594;2023-04-03T02:43:16;9.80;;;4.00;;
23171;SDS011;11754;42.664;23.594;2023-04-03T02:45:41;7.28;;;4.00;;
23171;SDS011;11754;42.664;23.594;2023-04-03T02:48:07;9.48;;;4.60;;
23171;SDS011;11754;42.664;23.594;2023-04-03T02:50:32;11.48;;;4.35;;
23171;SDS011;11754;42.664;23.594;2023-04-03T02:52:58;8.70;;;4.07;;
23171;SDS011;11754;42.664;23.594;2023-04-03T02:55:23;9.43;;;4.32;;
23171;SDS011;11754;42.664;23.594;2023-04-03T02:57:49;7.32;;;4.78;;
23171;SDS011;11754;42.664;23.594;2023-04-03T03:00:14;12.52;;;8.70;;
23171;SDS011;11754;42.664;23.594;2023-04-03T03:02:40;18.08;;;9.77;;
23171;SDS011;11754;42.664;23.594;2023-04-03T03:05:05;21.75;;;10.73;;
23171;SDS011;11754;42.664;23.594;2023-04-03T03:07:32;23.17;;;12.88;;
23171;SDS011;11754;42.664;23.594;2023-04-03T03:09:57;24.30;;;12.60;;
23171;SDS011;11754;42.664;23.594;2023-04-03T03:12:23;20.15;;;10.77;;
23171;SDS011;11754;42.664;23.594;2023-04-03T03:14:49;20.58;;;9.40;;
23171;SDS011;11754;42.664;23.594;2023-04-03T03:17:15;20.55;;;9.32;;
23171;SDS011;11754;42.664;23.594;2023-04-03T03:19:41;19.88;;;9.63;;
23171;SDS011;11754;42.664;23.594;2023-04-03T03:22:07;15.77;;;7.80;;
23171;SDS011;11754;42.664;23.594;2023-04-03T03:24:32;11.40;;;6.90;;
23171;SDS011;11754;42.664;23.594;2023-04-03T03:26:57;12.75;;;7.05;;
23171;SDS011;11754;42.664;23.594;2023-04-03T03:29:23;15.93;;;8.30;;
23171;SDS011;11754;42.664;23.594;2023-04-03T03:31:48;17.48;;;10.27;;
23171;SDS011;11754;42.664;23.594;2023-04-03T03:34:13;19.60;;;10.45;;
23171;SDS011;11754;42.664;23.594;2023-04-03T03:36:39;20.25;;;10.68;;
23171;SDS011;11754;42.664;23.594;2023-04-03T03:39:05;24.50;;;11.68;;
23171;SDS011;11754;42.664;23.594;2023-04-03T03:41:31;24.10;;;15.05;;
23171;SDS011;11754;42.664;23.594;2023-04-03T03:43:56;15.65;;;10.10;;
23171;SDS011;11754;42.664;23.594;2023-04-03T03:46:22;15.48;;;8.38;;
23171;SDS011;11754;42.664;23.594;2023-04-03T03:48:47;12.15;;;6.93;;
23171;SDS011;11754;42.664;23.594;2023-04-03T03:51:13;13.70;;;7.38;;
23171;SDS011;11754;42.664;23.594;2023-04-03T03:53:38;17.63;;;10.02;;
23171;SDS011;11754;42.664;23.594;2023-04-03T03:56:04;21.42;;;12.80;;
23171;SDS011;11754;42.664;23.594;2023-04-03T03:58:30;17.75;;;8.32;;
23171;SDS011;11754;42.664;23.594;2023-04-03T04:00:59;11.52;;;7.20;;
23171;SDS011;11754;42.664;23.594;2023-04-03T04:03:26;17.90;;;8.57;;
23171;SDS011;11754;42.664;23.594;2023-04-03T04:05:52;28.05;;;13.25;;
23171;SDS011;11754;42.664;23.594;2023-04-03T04:08:17;30.40;;;16.95;;
23171;SDS011;11754;42.664;23.594;2023-04-03T04:10:42;22.95;;;13.38;;
23171;SDS011;11754;42.664;23.594;2023-04-03T04:13:08;22.40;;;12.05;;
23171;SDS011;11754;42.664;23.594;2023-04-03T04:15:33;34.47;;;14.90;;
23171;SDS011;11754;42.664;23.594;2023-04-03T04:17:58;32.47;;;13.38;;
23171;SDS011;11754;42.664;23.594;2023-04-03T04:20:24;33.85;;;14.65;;
23171;SDS011;11754;42.664;23.594;2023-04-03T04:22:49;32.53;;;12.18;;
23171;SDS011;11754;42.664;23.594;2023-04-03T04:25:15;23.55;;;10.73;;
23171;SDS011;11754;42.664;23.594;2023-04-03T04:27:41;19.67;;;10.00;;
23171;SDS011;11754;42.664;23.594;2023-04-03T04:30:06;12.48;;;6.85;;
23171;SDS011;11754;42.664;23.594;2023-04-03T04:32:32;12.25;;;6.78;;
23171;SDS011;11754;42.664;23.594;2023-04-03T04:34:58;14.57;;;5.68;;
23171;SDS011;11754;42.664;23.594;2023-04-03T04:37:23;22.27;;;7.28;;
23171;SDS011;11754;42.664;23.594;2023-04-03T04:39:48;13.30;;;6.80;;
23171;SDS011;11754;42.664;23.594;2023-04-03T04:42:14;16.05;;;8.40;;
23171;SDS011;11754;42.664;23.594;2023-04-03T04:44:40;16.63;;;8.40;;
23171;SDS011;11754;42.664;23.594;2023-04-03T04:47:05;19.58;;;8.25;;
23171;SDS011;11754;42.664;23.594;2023-04-03T04:49:30;25.33;;;8.50;;
23171;SDS011;11754;42.664;23.594;2023-04-03T04:51:56;11.52;;;5.07;;
23171;SDS011;11754;42.664;23.594;2023-04-03T04:54:21;18.98;;;4.85;;
23171;SDS011;11754;42.664;23.594;2023-04-03T04:56:47;13.80;;;5.28;;
23171;SDS011;11754;42.664;23.594;2023-04-03T04:59:12;13.82;;;5.00;;
23171;SDS011;11754;42.664;23.594;2023-04-03T05:01:37;16.55;;;6.63;;
23171;SDS011;11754;42.664;23.594;2023-04-03T05:04:03;10.32;;;5.72;;
23171;SDS011;11754;42.664;23.594;2023-04-03T05:06:29;16.83;;;7.28;;
23171;SDS011;11754;42.664;23.594;2023-04-03T05:08:56;19.60;;;8.70;;
23171;SDS011;11754;42.664;23.594;2023-04-03T05:11:22;22.45;;;10.93;;
23171;SDS011;11754;42.664;23.594;2023-04-03T05:13:48;19.02;;;9.75;;
23171;SDS011;11754;42.664;23.594;2023-04-03T05:16:13;36.22;;;12.50;;
23171;SDS011;11754;42.664;23.594;2023-04-03T05:18:38;26.00;;;12.95;;
23171;SDS011;11754;42.664;23.594;2023-04-03T05:21:04;21.10;;;11.18;;
23171;SDS011;11754;42.664;23.594;2023-04-03T05:23:29;16.95;;;9.27;;
23171;SDS011;11754;42.664;23.594;2023-04-03T05:25:55;21.20;;;11.00;;
23171;SDS011;11754;42.664;23.594;2023-04-03T05:28:20;30.80;;;15.63;;
23171;SDS011;11754;42.664;23.594;2023-04-03T05:30:46;37.25;;;18.20;;
23171;SDS011;11754;42.664;23.594;2023-04-03T05:33:19;30.63;;;15.45;;
23171;SDS011;11754;42.664;23.594;2023-04-03T05:35:44;30.02;;;14.32;;
23171;SDS011;11754;42.664;23.594;2023-04-03T05:38:10;21.77;;;11.30;;
23171;SDS011;11754;42.664;23.594;2023-04-03T05:40:36;21.48;;;11.45;;
23171;SDS011;11754;42.664;23.594;2023-04-03T05:43:02;22.30;;;12.57;;
23171;SDS011;11754;42.664;23.594;2023-04-03T05:45:28;20.38;;;11.88;;
23171;SDS011;11754;42.664;23.594;2023-04-03T05:47:53;26.00;;;12.18;;
23171;SDS011;11754;42.664;23.594;2023-04-03T05:50:18;22.05;;;11.95;;
23171;SDS011;11754;42.664;23.594;2023-04-03T05:52:45;23.85;;;12.50;;
23171;SDS011;11754;42.664;23.594;2023-04-03T05:55:13;27.88;;;13.98;;
23171;SDS011;11754;42.664;23.594;2023-04-03T05:57:39;22.73;;;13.13;;
23171;SDS011;11754;42.664;23.594;2023-04-03T06:00:05;21.63;;;12.52;;
23171;SDS011;11754;42.664;23.594;2023-04-03T06:02:32;26.75;;;12.43;;
23171;SDS011;11754;42.664;23.594;2023-04-03T06:04:57;19.65;;;10.75;;
23171;SDS011;11754;42.664;23.594;2023-04-03T06:07:24;26.90;;;12.35;;
23171;SDS011;11754;42.664;23.594;2023-04-03T06:09:53;23.23;;;11.82;;
23171;SDS011;11754;42.664;23.594;2023-04-03T06:12:20;20.48;;;9.55;;
23171;SDS011;11754;42.664;23.594;2023-04-03T06:14:46;20.02;;;9.10;;
23171;SDS011;11754;42.664;23.594;2023-04-03T06:17:12;15.18;;;10.13;;
23171;SDS011;11754;42.664;23.594;2023-04-03T06:19:39;10.38;;;5.28;;
23171;SDS011;11754;42.664;23.594;2023-04-03T06:22:04;15.07;;;8.18;;
23171;SDS011;11754;42.664;23.594;2023-04-03T06:24:30;8.57;;;5.25;;
23171;SDS011;11754;42.664;23.594;2023-04-03T06:26:56;10.55;;;6.35;;
23171;SDS011;11754;42.664;23.594;2023-04-03T06:29:22;12.40;;;5.68;;
23171;SDS011;11754;42.664;23.594;2023-04-03T06:31:51;11.02;;;5.07;;
23171;SDS011;11754;42.664;23.594;2023-04-03T06:34:16;12.85;;;5.07;;
23171;SDS011;11754;42.664;23.594;2023-04-03T06:36:43;14.70;;;7.15;;
23171;SDS011;11754;42.664;23.594;2023-04-03T06:39:17;14.73;;;5.70;;
23171;SDS011;11754;42.664;23.594;2023-04-03T06:41:45;12.30;;;6.00;;
23171;SDS011;11754;42.664;23.594;2023-04-03T06:44:11;11.73;;;5.50;;
23171;SDS011;11754;42.664;23.594;2023-04-03T06:46:38;15.15;;;8.75;;
23171;SDS011;11754;42.664;23.594;2023-04-03T06:49:03;11.43;;;7.05;;
23171;SDS011;11754;42.664;23.594;2023-04-03T06:51:32;23.85;;;14.95;;
23171;SDS011;11754;42.664;23.594;2023-04-03T06:53:58;16.88;;;7.47;;
23171;SDS011;11754;42.664;23.594;2023-04-03T06:56:24;16.10;;;10.20;;
23171;SDS011;11754;42.664;23.594;2023-04-03T06:58:51;9.38;;;6.50;;
23171;SDS011;11754;42.664;23.594;2023-04-03T07:01:19;10.82;;;7.10;;
23171;SDS011;11754;42.664;23.594;2023-04-03T07:03:46;12.40;;;6.47;;
23171;SDS011;11754;42.664;23.594;2023-04-03T07:06:13;13.60;;;7.32;;
23171;SDS011;11754;42.664;23.594;2023-04-03T07:08:42;14.40;;;8.30;;
23171;SDS011;11754;42.664;23.594;2023-04-03T07:11:09;12.57;;;7.40;;
23171;SDS011;11754;42.664;23.594;2023-04-03T07:13:35;13.98;;;6.82;;
23171;SDS011;11754;42.664;23.594;2023-04-03T07:16:04;10.23;;;7.45;;
23171;SDS011;11754;42.664;23.594;2023-04-03T07:18:31;13.75;;;9.30;;
23171;SDS011;11754;42.664;23.594;2023-04-03T07:20:57;27.35;;;16.13;;
23171;SDS011;11754;42.664;23.594;2023-04-03T07:23:22;17.80;;;9.45;;
23171;SDS011;11754;42.664;23.594;2023-04-03T07:25:48;17.70;;;7.18;;
23171;SDS011;11754;42.664;23.594;2023-04-03T07:28:15;20.42;;;8.05;;
23171;SDS011;11754;42.664;23.594;2023-04-03T07:30:49;18.67;;;7.68;;
23171;SDS011;11754;42.664;23.594;2023-04-03T07:33:17;15.65;;;8.10;;
23171;SDS011;11754;42.664;23.594;2023-04-03T07:35:44;17.15;;;8.57;;
23171;SDS011;11754;42.664;23.594;2023-04-03T07:38:10;22.33;;;9.38;;
23171;SDS011;11754;42.664;23.594;2023-04-03T07:40:36;13.95;;;7.88;;
23171;SDS011;11754;42.664;23.594;2023-04-03T07:43:02;14.40;;;7.38;;
23171;SDS011;11754;42.664;23.594;2023-04-03T07:45:28;11.13;;;5.63;;
23171;SDS011;11754;42.664;23.594;2023-04-03T07:47:54;13.27;;;5.55;;
23171;SDS011;11754;42.664;23.594;2023-04-03T07:50:20;8.38;;;5.13;;
23171;SDS011;11754;42.664;23.594;2023-04-03T07:52:45;11.15;;;6.28;;
23171;SDS011;11754;42.664;23.594;2023-04-03T07:55:11;8.27;;;5.10;;
23171;SDS011;11754;42.664;23.594;2023-04-03T07:57:37;19.88;;;6.28;;
23171;SDS011;11754;42.664;23.594;2023-04-03T08:00:05;14.70;;;6.50;;
23171;SDS011;11754;42.664;23.594;2023-04-03T08:02:31;10.55;;;5.22;;
23171;SDS011;11754;42.664;23.594;2023-04-03T08:04:57;11.85;;;5.60;;
23171;SDS011;11754;42.664;23.594;2023-04-03T08:07:24;9.82;;;5.55;;
23171;SDS011;11754;42.664;23.594;2023-04-03T08:09:50;10.85;;;5.72;;
23171;SDS011;11754;42.664;23.594;2023-04-03T08:12:16;6.88;;;4.75;;
23171;SDS011;11754;42.664;23.594;2023-04-03T08:14:42;7.57;;;4.20;;
23171;SDS011;11754;42.664;23.594;2023-04-03T08:17:08;9.40;;;4.60;;
23171;SDS011;11754;42.664;23.594;2023-04-03T08:19:36;9.65;;;3.70;;
23171;SDS011;11754;42.664;23.594;2023-04-03T08:22:03;4.82;;;3.30;;
23171;SDS011;11754;42.664;23.594;2023-04-03T08:24:30;10.98;;;4.20;;
23171;SDS011;11754;42.664;23.594;2023-04-03T08:26:56;8.05;;;4.10;;
23171;SDS011;11754;42.664;23.594;2023-04-03T08:29:21;19.52;;;4.60;;
23171;SDS011;11754;42.664;23.594;2023-04-03T08:31:46;8.55;;;3.90;;
23171;SDS011;11754;42.664;23.594;2023-04-03T08:34:13;5.03;;;3.40;;
23171;SDS011;11754;42.664;23.594;2023-04-03T08:36:39;8.43;;;3.95;;
23171;SDS011;11754;42.664;23.594;2023-04-03T08:39:05;9.75;;;4.60;;
23171;SDS011;11754;42.664;23.594;2023-04-03T08:41:34;11.75;;;4.95;;
23171;SDS011;11754;42.664;23.594;2023-04-03T08:49:55;10.00;;;6.15;;
23171;SDS011;11754;42.664;23.594;2023-04-03T08:52:44;10.60;;;5.75;;
23171;SDS011;11754;42.664;23.594;2023-04-03T09:00:25;7.20;;;3.90;;
23171;SDS011;11754;42.664;23.594;2023-04-03T09:02:54;8.50;;;3.90;;
23171;SDS011;11754;42.664;23.594;2023-04-03T09:08:11;11.43;;;4.40;;
23171;SDS011;11754;42.664;23.594;2023-04-03T09:10:41;11.13;;;4.13;;
23171;SDS011;11754;42.664;23.594;2023-04-03T09:13:10;7.78;;;3.40;;
23171;SDS011;11754;42.664;23.594;2023-04-03T09:15:46;15.40;;;4.20;;
23171;SDS011;11754;42.664;23.594;2023-04-03T09:18:21;8.02;;;3.05;;
23171;SDS011;11754;42.664;23.594;2023-04-03T09:21:04;3.97;;;3.00;;
23171;SDS011;11754;42.664;23.594;2023-04-03T09:23:45;6.68;;;3.83;;
23171;SDS011;11754;42.664;23.594;2023-04-03T09:26:25;5.45;;;4.10;;
23171;SDS011;11754;42.664;23.594;2023-04-03T09:28:56;10.18;;;3.55;;
23171;SDS011;11754;42.664;23.594;2023-04-03T09:31:29;6.10;;;3.75;;
23171;SDS011;11754;42.664;23.594;2023-04-03T09:34:06;10.73;;;4.00;;
23171;SDS011;11754;42.664;23.594;2023-04-03T09:39:14;7.05;;;3.83;;
23171;SDS011;11754;42.664;23.594;2023-04-03T09:44:19;11.98;;;3.50;;
23171;SDS011;11754;42.664;23.594;2023-04-03T09:46:47;8.07;;;3.65;;
23171;SDS011;11754;42.664;23.594;2023-04-03T09:49:12;6.05;;;3.63;;
23171;SDS011;11754;42.664;23.594;2023-04-03T09:51:38;12.77;;;3.72;;
23171;SDS011;11754;42.664;23.594;2023-04-03T09:57:01;11.18;;;4.22;;
23171;SDS011;11754;42.664;23.594;2023-04-03T09:59:31;6.90;;;3.83;;
23171;SDS011;11754;42.664;23.594;2023-04-03T10:02:21;5.85;;;3.40;;
23171;SDS011;11754;42.664;23.594;2023-04-03T10:04:48;9.63;;;4.13;;
23171;SDS011;11754;42.664;23.594;2023-04-03T10:10:23;10.82;;;4.75;;
23171;SDS011;11754;42.664;23.594;2023-04-03T10:15:50;20.90;;;5.35;;
23171;SDS011;11754;42.664;23.594;2023-04-03T10:21:10;9.77;;;4.72;;
23171;SDS011;11754;42.664;23.594;2023-04-03T10:23:51;10.88;;;5.10;;
23171;SDS011;11754;42.664;23.594;2023-04-03T10:29:39;21.13;;;11.93;;
23171;SDS011;11754;42.664;23.594;2023-04-03T10:32:07;17.02;;;6.13;;
23171;SDS011;11754;42.664;23.594;2023-04-03T10:34:44;15.13;;;5.45;;
23171;SDS011;11754;42.664;23.594;2023-04-03T10:37:17;9.35;;;4.57;;
23171;SDS011;11754;42.664;23.594;2023-04-03T10:39:57;7.03;;;3.72;;
23171;SDS011;11754;42.664;23.594;2023-04-03T10:52:37;5.38;;;4.05;;
23171;SDS011;11754;42.664;23.594;2023-04-03T10:55:21;12.27;;;7.63;;
23171;SDS011;11754;42.664;23.594;2023-04-03T10:57:51;16.13;;;8.60;;
23171;SDS011;11754;42.664;23.594;2023-04-03T11:00:22;9.95;;;5.82;;
23171;SDS011;11754;42.664;23.594;2023-04-03T11:03:03;12.32;;;8.75;;
23171;SDS011;11754;42.664;23.594;2023-04-03T11:05:53;18.70;;;9.95;;
23171;SDS011;11754;42.664;23.594;2023-04-03T11:08:33;13.57;;;9.77;;
23171;SDS011;11754;42.664;23.594;2023-04-03T11:11:17;18.77;;;15.35;;
23171;SDS011;11754;42.664;23.594;2023-04-03T11:16:16;12.77;;;10.27;;
23171;SDS011;11754;42.664;23.594;2023-04-03T11:18:52;15.75;;;10.73;;
23171;SDS011;11754;42.664;23.594;2023-04-03T11:21:29;7.63;;;5.45;;
23171;SDS011;11754;42.664;23.594;2023-04-03T11:24:00;14.82;;;10.13;;
23171;SDS011;11754;42.664;23.594;2023-04-03T11:26:30;12.10;;;8.27;;
23171;SDS011;11754;42.664;23.594;2023-04-03T11:29:03;11.85;;;7.35;;
23171;SDS011;11754;42.664;23.594;2023-04-03T11:34:30;14.55;;;6.68;;
23171;SDS011;11754;42.664;23.594;2023-04-03T11:37:02;16.63;;;10.15;;
23171;SDS011;11754;42.664;23.594;2023-04-03T11:39:35;18.80;;;10.88;;
23171;SDS011;11754;42.664;23.594;2023-04-03T11:45:17;10.65;;;6.60;;
23171;SDS011;11754;42.664;23.594;2023-04-03T11:47:49;11.80;;;7.38;;
23171;SDS011;11754;42.664;23.594;2023-04-03T11:50:39;13.95;;;8.32;;
23171;SDS011;11754;42.664;23.594;2023-04-03T12:05:53;22.15;;;13.80;;
23171;SDS011;11754;42.664;23.594;2023-04-03T12:08:43;22.13;;;13.02;;
23171;SDS011;11754;42.664;23.594;2023-04-03T12:11:26;13.23;;;9.90;;
23171;SDS011;11754;42.664;23.594;2023-04-03T12:21:22;14.15;;;10.15;;
23171;SDS011;11754;42.664;23.594;2023-04-03T12:26:30;17.35;;;10.70;;
23171;SDS011;11754;42.664;23.594;2023-04-03T12:29:21;46.75;;;29.60;;
23171;SDS011;11754;42.664;23.594;2023-04-03T12:43:29;32.97;;;20.23;;
23171;SDS011;11754;42.664;23.594;2023-04-03T12:48:48;19.58;;;11.88;;
23171;SDS011;11754;42.664;23.594;2023-04-03T12:51:26;18.00;;;11.57;;
23171;SDS011;11754;42.664;23.594;2023-04-03T12:57:11;13.88;;;9.27;;
23171;SDS011;11754;42.664;23.594;2023-04-03T12:59:40;23.23;;;16.05;;
23171;SDS011;11754;42.664;23.594;2023-04-03T13:04:46;14.85;;;11.05;;
23171;SDS011;11754;42.664;23.594;2023-04-03T13:07:21;17.65;;;12.18;;
23171;SDS011;11754;42.664;23.594;2023-04-03T13:12:31;14.95;;;9.73;;
23171;SDS011;11754;42.664;23.594;2023-04-03T13:14:59;17.13;;;12.82;;
23171;SDS011;11754;42.664;23.594;2023-04-03T13:17:41;17.52;;;11.45;;
23171;SDS011;11754;42.664;23.594;2023-04-03T13:25:13;20.45;;;12.30;;
23171;SDS011;11754;42.664;23.594;2023-04-03T13:27:40;23.25;;;13.45;;
23171;SDS011;11754;42.664;23.594;2023-04-03T13:30:28;23.35;;;12.70;;
23171;SDS011;11754;42.664;23.594;2023-04-03T13:32:59;24.88;;;13.27;;
23171;SDS011;11754;42.664;23.594;2023-04-03T13:35:34;22.38;;;10.52;;
23171;SDS011;11754;42.664;23.594;2023-04-03T13:38:06;13.70;;;6.97;;
23171;SDS011;11754;42.664;23.594;2023-04-03T13:40:54;13.85;;;8.63;;
23171;SDS011;11754;42.664;23.594;2023-04-03T13:43:26;13.60;;;8.82;;
23171;SDS011;11754;42.664;23.594;2023-04-03T13:48:52;7.43;;;4.13;;
23171;SDS011;11754;42.664;23.594;2023-04-03T13:51:23;9.30;;;5.90;;
23171;SDS011;11754;42.664;23.594;2023-04-03T13:53:53;11.13;;;7.30;;
23171;SDS011;11754;42.664;23.594;2023-04-03T13:56:35;16.90;;;9.27;;
23171;SDS011;11754;42.664;23.594;2023-04-03T13:59:20;15.88;;;9.57;;
23171;SDS011;11754;42.664;23.594;2023-04-03T14:02:12;9.63;;;4.95;;
23171;SDS011;11754;42.664;23.594;2023-04-03T14:07:08;6.88;;;4.07;;
23171;SDS011;11754;42.664;23.594;2023-04-03T14:09:33;13.85;;;7.50;;
23171;SDS011;11754;42.664;23.594;2023-04-03T14:12:02;6.18;;;4.32;;
23171;SDS011;11754;42.664;23.594;2023-04-03T14:14:33;9.15;;;5.88;;
23171;SDS011;11754;42.664;23.594;2023-04-03T14:17:02;18.50;;;12.85;;
23171;SDS011;11754;42.664;23.594;2023-04-03T14:19:30;22.38;;;14.45;;
23171;SDS011;11754;42.664;23.594;2023-04-03T14:21:57;13.23;;;9.60;;
23171;SDS011;11754;42.664;23.594;2023-04-03T14:24:24;14.85;;;11.00;;
23171;SDS011;11754;42.664;23.594;2023-04-03T14:26:50;18.08;;;10.70;;
23171;SDS011;11754;42.664;23.594;2023-04-03T14:29:17;16.67;;;10.75;;
23171;SDS011;11754;42.664;23.594;2023-04-03T14:31:44;24.67;;;13.95;;
23171;SDS011;11754;42.664;23.594;2023-04-03T14:34:11;20.13;;;13.32;;
23171;SDS011;11754;42.664;23.594;2023-04-03T14:36:37;20.67;;;11.30;;
23171;SDS011;11754;42.664;23.594;2023-04-03T14:39:04;24.70;;;13.35;;
23171;SDS011;11754;42.664;23.594;2023-04-03T14:41:30;23.35;;;12.20;;
23171;SDS011;11754;42.664;23.594;2023-04-03T14:43:56;24.35;;;13.30;;
23171;SDS011;11754;42.664;23.594;2023-04-03T14:46:24;55.53;;;33.08;;
23171;SDS011;11754;42.664;23.594;2023-04-03T14:48:53;25.30;;;14.90;;
23171;SDS011;11754;42.664;23.594;2023-04-03T14:51:19;36.70;;;22.23;;
23171;SDS011;11754;42.664;23.594;2023-04-03T14:53:44;12.93;;;8.48;;
23171;SDS011;11754;42.664;23.594;2023-04-03T14:56:23;15.75;;;9.52;;
23171;SDS011;11754;42.664;23.594;2023-04-03T14:58:54;14.80;;;9.82;;
23171;SDS011;11754;42.664;23.594;2023-04-03T15:01:22;11.35;;;8.18;;
23171;SDS011;11754;42.664;23.594;2023-04-03T15:03:47;16.88;;;10.95;;
23171;SDS011;11754;42.664;23.594;2023-04-03T15:06:13;17.70;;;11.45;;
23171;SDS011;11754;42.664;23.594;2023-04-03T15:08:39;19.13;;;11.98;;
23171;SDS011;11754;42.664;23.594;2023-04-03T15:11:07;19.80;;;13.95;;
23171;SDS011;11754;42.664;23.594;2023-04-03T15:13:34;32.17;;;16.85;;
23171;SDS011;11754;42.664;23.594;2023-04-03T15:16:00;24.90;;;15.48;;
23171;SDS011;11754;42.664;23.594;2023-04-03T15:18:26;23.70;;;14.32;;
23171;SDS011;11754;42.664;23.594;2023-04-03T15:20:55;23.23;;;15.23;;
23171;SDS011;11754;42.664;23.594;2023-04-03T15:23:21;28.58;;;19.17;;
23171;SDS011;11754;42.664;23.594;2023-04-03T15:25:51;32.97;;;19.38;;
23171;SDS011;11754;42.664;23.594;2023-04-03T15:28:19;36.78;;;21.98;;
23171;SDS011;11754;42.664;23.594;2023-04-03T15:33:15;26.80;;;16.02;;
23171;SDS011;11754;42.664;23.594;2023-04-03T15:35:40;24.30;;;15.45;;
23171;SDS011;11754;42.664;23.594;2023-04-03T15:38:07;21.05;;;14.82;;
23171;SDS011;11754;42.664;23.594;2023-04-03T15:40:32;18.60;;;13.45;;
23171;SDS011;11754;42.664;23.594;2023-04-03T15:42:58;20.00;;;12.80;;
23171;SDS011;11754;42.664;23.594;2023-04-03T15:45:23;39.30;;;26.25;;
23171;SDS011;11754;42.664;23.594;2023-04-03T15:47:49;34.88;;;22.80;;
23171;SDS011;11754;42.664;23.594;2023-04-03T15:50:15;22.95;;;14.93;;
23171;SDS011;11754;42.664;23.594;2023-04-03T15:52:40;17.23;;;11.63;;
23171;SDS011;11754;42.664;23.594;2023-04-03T15:55:06;17.52;;;11.23;;
23171;SDS011;11754;42.664;23.594;2023-04-03T15:57:31;15.20;;;9.88;;
23171;SDS011;11754;42.664;23.594;2023-04-03T15:59:57;13.60;;;8.38;;
23171;SDS011;11754;42.664;23.594;2023-04-03T16:02:22;19.05;;;10.68;;
23171;SDS011;11754;42.664;23.594;2023-04-03T16:04:48;16.98;;;9.13;;
23171;SDS011;11754;42.664;23.594;2023-04-03T16:07:14;20.13;;;11.00;;
23171;SDS011;11754;42.664;23.594;2023-04-03T16:09:39;15.25;;;8.65;;
23171;SDS011;11754;42.664;23.594;2023-04-03T16:12:05;10.43;;;6.70;;
23171;SDS011;11754;42.664;23.594;2023-04-03T16:14:30;9.40;;;6.28;;
23171;SDS011;11754;42.664;23.594;2023-04-03T16:16:56;15.57;;;10.23;;
23171;SDS011;11754;42.664;23.594;2023-04-03T16:19:23;18.02;;;9.90;;
23171;SDS011;11754;42.664;23.594;2023-04-03T16:21:49;16.08;;;10.82;;
23171;SDS011;11754;42.664;23.594;2023-04-03T16:24:15;13.98;;;9.02;;
23171;SDS011;11754;42.664;23.594;2023-04-03T16:26:40;13.25;;;8.90;;
23171;SDS011;11754;42.664;23.594;2023-04-03T16:29:06;13.27;;;8.75;;